Time;durP1;ratioP1;P1;durP2;ratioP2;P2;SDS_P1;SDS_P2;PMS_P1;PMS_P2;Temp;Humidity;BMP_temperature;BMP_pressure;BME280_temperature;BME280_humidity;BME280_pressure;Samples;Min_cycle;Max_cycle;Signal;HPM_P1;HPM_P2
2022/09/15 00:01:21;;;;;;;;;;;;;;;23.48;63.26;98185.13;7315771;19;129352;-37
2022/09/15 00:03:46;;;;;;;;;;;;;;;23.49;63.23;98183.28;7315205;19;130712;-38
2022/09/15 00:06:12;;;;;;;;;;;;;;;23.48;62.54;98187.75;7316688;19;128853;-38
2022/09/15 00:08:38;;;;;;;;;;;;;;;23.48;63.18;98189.53;7315869;19;129185;-38
2022/09/15 00:11:09;;;;;;;;;;;;;;;23.47;62.83;98182.69;7312786;19;130220;-37
2022/09/15 00:13:35;;;;;;;;;;;;;;;23.47;62.84;98180.06;7315131;19;129589;-37
2022/09/15 00:16:01;;;;;;;;;;;;;;;23.45;63.52;98184.66;7315070;19;130036;-37
2022/09/15 00:18:26;;;;;;;;;;;;;;;23.46;63.00;98192.34;7316772;19;130833;-37
2022/09/15 00:20:51;;;;;;;;;;;;;;;23.48;63.04;98195.63;7314559;19;130267;-37
2022/09/15 00:23:16;;;;;;;;;;;;;;;23.42;63.40;98180.59;7317287;19;129247;-37
2022/09/15 00:25:46;;;;;;;;;;;;;;;23.47;63.19;98199.22;7316601;19;128711;-35
2022/09/15 00:28:12;;;;;;;;;;;;;;;23.47;63.11;98203.66;7316572;19;130196;-36
2022/09/15 00:30:41;;;;;;;;;;;;;;;23.47;63.02;98193.97;7314298;19;131848;-37
2022/09/15 00:33:07;;;;;;;;;;;;;;;23.47;62.80;98188.72;7315881;19;129971;-37
2022/09/15 00:35:34;;;;;;;;;;;;;;;23.50;62.90;98204.13;7317360;19;129112;-37
2022/09/15 00:38:00;;;;;;;;;;;;;;;23.46;63.28;98200.22;7316003;19;129665;-37
2022/09/15 00:40:26;;;;;;;;;;;;;;;23.45;62.86;98201.22;7314964;19;131042;-37
2022/09/15 00:42:51;;;;;;;;;;;;;;;23.43;62.87;98197.97;7315636;19;129091;-37
2022/09/15 00:45:16;;;;;;;;;;;;;;;23.45;62.83;98198.59;7316992;19;128903;-37
2022/09/15 00:47:42;;;;;;;;;;;;;;;23.45;63.30;98205.66;7313445;19;129416;-38
2022/09/15 00:50:09;;;;;;;;;;;;;;;23.45;63.48;98201.22;7315249;19;129614;-37
2022/09/15 00:52:38;;;;;;;;;;;;;;;23.45;63.17;98200.41;7317062;19;129404;-37
2022/09/15 00:55:09;;;;;;;;;;;;;;;23.37;63.13;98190.81;7315647;19;130193;-37
2022/09/15 00:57:46;;;;;;;;;;;;;;;23.44;63.50;98202.22;7315196;19;129156;-37
2022/09/15 01:00:13;;;;;;;;;;;;;;;23.48;63.35;98206.09;7314527;19;130355;-37
2022/09/15 01:02:41;;;;;;;;;;;;;;;23.38;63.00;98208.22;7314827;19;130669;-37
2022/09/15 01:05:09;;;;;;;;;;;;;;;23.45;62.68;98227.47;7314054;19;129159;-37
2022/09/15 01:07:38;;;;;;;;;;;;;;;23.45;63.18;98216.97;7313459;19;129043;-37
2022/09/15 01:10:05;;;;;;;;;;;;;;;23.45;63.10;98222.22;7313184;19;131076;-37
2022/09/15 01:12:31;;;;;;;;;;;;;;;23.44;63.11;98225.00;7314757;19;128952;-37
2022/09/15 01:14:58;;;;;;;;;;;;;;;23.36;62.99;98202.31;7315990;19;129316;-38
2022/09/15 01:17:40;;;;;;;;;;;;;;;23.44;62.32;98215.31;7315092;19;129088;-37
2022/09/15 01:20:11;;;;;;;;;;;;;;;23.44;63.04;98220.56;7313849;19;130488;-37
2022/09/15 01:22:47;;;;;;;;;;;;;;;23.46;62.92;98223.81;7314411;19;128954;-37
2022/09/15 01:25:32;;;;;;;;;;;;;;;23.45;62.65;98227.47;7315135;19;128920;-37
2022/09/15 01:28:12;;;;;;;;;;;;;;;23.45;63.06;98222.22;7314493;19;129936;-36
2022/09/15 01:30:41;;;;;;;;;;;;;;;23.44;63.04;98223.19;7311269;19;129595;-37
2022/09/15 01:33:18;;;;;;;;;;;;;;;23.43;63.21;98229.44;7313769;19;129202;-37
2022/09/15 01:35:47;;;;;;;;;;;;;;;23.44;62.74;98236.31;7313372;19;129516;-37
2022/09/15 01:38:15;;;;;;;;;;;;;;;23.43;63.32;98234.69;7314520;19;130991;-38
2022/09/15 01:40:44;;;;;;;;;;;;;;;23.43;62.81;98233.88;7311238;19;129344;-35
2022/09/15 01:43:10;;;;;;;;;;;;;;;23.37;62.59;98214.44;7313547;19;129040;-38
2022/09/15 01:45:37;;;;;;;;;;;;;;;23.46;62.61;98226.44;7314379;19;129984;-37
2022/09/15 01:48:05;;;;;;;;;;;;;;;23.44;63.15;98220.56;7312258;19;130841;-37
2022/09/15 01:50:36;;;;;;;;;;;;;;;23.35;62.64;98205.97;7312149;19;129157;-37
2022/09/15 01:53:02;;;;;;;;;;;;;;;23.46;62.91;98213.34;7311526;19;130066;-37
2022/09/15 01:55:37;;;;;;;;;;;;;;;23.46;63.28;98221.22;7312783;19;129384;-37
2022/09/15 01:58:03;;;;;;;;;;;;;;;23.46;62.98;98218.59;7313355;19;129142;-37
2022/09/15 02:00:29;;;;;;;;;;;;;;;23.44;63.18;98231.06;7311315;19;130447;-36
2022/09/15 02:02:57;;;;;;;;;;;;;;;23.45;62.81;98230.09;7312892;19;129040;-37
2022/09/15 02:05:29;;;;;;;;;;;;;;;23.46;63.29;98220.38;7313495;19;128875;-37
2022/09/15 02:07:54;;;;;;;;;;;;;;;23.44;62.70;98215.31;7309177;19;132155;-38
2022/09/15 02:10:32;;;;;;;;;;;;;;;23.44;62.79;98225.81;7312569;19;129261;-37
2022/09/15 02:13:00;;;;;;;;;;;;;;;23.45;63.12;98224.84;7313159;19;129447;-37
2022/09/15 02:15:32;;;;;;;;;;;;;;;23.44;63.09;98231.06;7314596;19;129062;-37
2022/09/15 02:17:59;;;;;;;;;;;;;;;23.46;63.07;98218.59;7318097;19;130172;-37
2022/09/15 02:20:37;;;;;;;;;;;;;;;23.46;62.74;98217.75;7318820;19;131161;-37
2022/09/15 02:23:26;;;;;;;;;;;;;;;23.44;63.03;98219.75;7319006;19;128879;-38
2022/09/15 02:25:55;;;;;;;;;;;;;;;23.43;62.88;98223.38;7318637;19;129805;-37
2022/09/15 02:28:26;;;;;;;;;;;;;;;23.44;62.85;98225.81;7320134;19;129982;-37
2022/09/15 02:30:53;;;;;;;;;;;;;;;23.45;62.83;98232.72;7316539;19;129706;-37
2022/09/15 02:33:22;;;;;;;;;;;;;;;23.47;62.51;98229.91;7319014;19;128899;-37
2022/09/15 02:35:50;;;;;;;;;;;;;;;23.45;62.56;98237.97;7320158;19;129296;-37
2022/09/15 02:38:15;;;;;;;;;;;;;;;23.45;62.53;98243.19;7319164;19;130221;-37
2022/09/15 02:40:42;;;;;;;;;;;;;;;23.48;62.35;98248.06;7318102;19;130386;-37
2022/09/15 02:43:12;;;;;;;;;;;;;;;23.46;62.77;98239.56;7319961;19;130137;-37
2022/09/15 02:45:37;;;;;;;;;;;;;;;23.45;63.12;98251.06;7319412;19;128912;-37
2022/09/15 02:48:03;;;;;;;;;;;;;;;23.44;63.19;98243.34;7315995;19;129178;-37
2022/09/15 02:50:29;;;;;;;;;;;;;;;23.43;63.17;98242.56;7317407;19;130572;-37
2022/09/15 02:52:55;;;;;;;;;;;;;;;23.43;62.96;98237.31;7319128;19;128932;-37
2022/09/15 02:55:20;;;;;;;;;;;;;;;23.44;63.02;98235.50;7319035;19;129067;-37
2022/09/15 02:57:46;;;;;;;;;;;;;;;23.42;63.01;98243.53;7319009;19;130776;-37
2022/09/15 03:00:12;;;;;;;;;;;;;;;23.34;62.90;98220.03;7316097;19;129591;-37
2022/09/15 03:02:37;;;;;;;;;;;;;;;23.43;63.18;98239.13;7318502;19;130614;-37
2022/09/15 03:05:02;;;;;;;;;;;;;;;23.43;62.59;98239.94;7318651;19;129608;-37
2022/09/15 03:07:28;;;;;;;;;;;;;;;23.44;62.93;98236.31;7317106;19;130101;-37
2022/09/15 03:09:54;;;;;;;;;;;;;;;23.44;62.63;98236.31;7317604;19;130319;-37
2022/09/15 03:12:19;;;;;;;;;;;;;;;23.45;62.70;98237.97;7317519;19;131032;-35
2022/09/15 03:14:45;;;;;;;;;;;;;;;23.39;62.64;98222.94;7317103;19;129631;-36
2022/09/15 03:17:11;;;;;;;;;;;;;;;23.35;63.04;98216.44;7319751;19;130184;-37
2022/09/15 03:19:36;;;;;;;;;;;;;;;23.44;63.10;98236.31;7317461;19;130597;-37
2022/09/15 03:22:02;;;;;;;;;;;;;;;23.44;62.42;98236.31;7317321;19;129260;-37
2022/09/15 03:24:27;;;;;;;;;;;;;;;23.44;62.67;98231.06;7318320;19;129028;-37
2022/09/15 03:26:52;;;;;;;;;;;;;;;23.45;62.43;98237.97;7314997;19;130561;-37
2022/09/15 03:29:17;;;;;;;;;;;;;;;23.44;63.08;98233.69;7316630;19;129156;-37
2022/09/15 03:31:42;;;;;;;;;;;;;;;23.46;62.76;98244.81;7315427;19;128908;-37
2022/09/15 03:34:08;;;;;;;;;;;;;;;23.43;62.98;98233.88;7316690;19;129203;-38
2022/09/15 03:36:33;;;;;;;;;;;;;;;23.42;63.18;98238.31;7317462;19;129954;-37
2022/09/15 03:38:59;;;;;;;;;;;;;;;23.44;62.45;98236.31;7315424;19;130004;-37
2022/09/15 03:41:24;;;;;;;;;;;;;;;23.44;62.66;98241.56;7316705;19;129310;-37
2022/09/15 03:43:50;;;;;;;;;;;;;;;23.43;62.54;98232.06;7318216;19;129308;-37
2022/09/15 03:46:15;;;;;;;;;;;;;;;23.43;63.15;98229.44;7316819;19;129567;-38
2022/09/15 03:48:40;;;;;;;;;;;;;;;23.45;62.88;98235.34;7316630;19;129769;-37
2022/09/15 03:51:06;;;;;;;;;;;;;;;23.45;62.87;98237.13;7316349;19;129106;-37
2022/09/15 03:53:33;;;;;;;;;;;;;;;23.32;62.81;98222.03;7315858;19;128920;-37
2022/09/15 03:56:16;;;;;;;;;;;;;;;23.45;62.98;98232.72;7317442;19;130984;-37
2022/09/15 03:58:41;;;;;;;;;;;;;;;23.44;62.93;98241.56;7316132;19;129508;-37
2022/09/15 04:01:07;;;;;;;;;;;;;;;23.44;62.41;98236.31;7314185;19;129598;-37
2022/09/15 04:03:32;;;;;;;;;;;;;;;23.42;63.15;98238.31;7315014;19;129129;-37
2022/09/15 04:05:57;;;;;;;;;;;;;;;23.43;62.68;98239.94;7316769;19;129012;-37
2022/09/15 04:08:22;;;;;;;;;;;;;;;23.44;63.10;98244.19;7315528;19;129360;-37
2022/09/15 04:10:48;;;;;;;;;;;;;;;23.44;62.67;98238.94;7314204;19;129607;-37
2022/09/15 04:13:13;;;;;;;;;;;;;;;23.43;62.78;98239.13;7316332;19;129576;-37
2022/09/15 04:15:38;;;;;;;;;;;;;;;23.44;62.75;98244.19;7315523;19;130326;-38
2022/09/15 04:18:03;;;;;;;;;;;;;;;23.43;62.45;98239.94;7315111;19;131610;-37
2022/09/15 04:20:29;;;;;;;;;;;;;;;23.43;62.56;98239.13;7312667;19;129301;-37
2022/09/15 04:22:55;;;;;;;;;;;;;;;23.43;62.36;98239.94;7316024;19;129092;-38
2022/09/15 04:25:20;;;;;;;;;;;;;;;23.43;62.27;98241.75;7315410;19;129270;-36
2022/09/15 04:27:45;;;;;;;;;;;;;;;23.45;62.79;98232.72;7313423;19;129608;-37
2022/09/15 04:30:11;;;;;;;;;;;;;;;23.45;62.32;98231.88;7314017;19;129367;-37
2022/09/15 04:32:36;;;;;;;;;;;;;;;23.43;62.40;98241.75;7316156;19;130905;-37
2022/09/15 04:35:01;;;;;;;;;;;;;;;23.41;62.66;98241.94;7315059;19;129020;-37
2022/09/15 04:37:27;;;;;;;;;;;;;;;23.42;62.60;98246.16;7313641;19;131181;-37
2022/09/15 04:39:52;;;;;;;;;;;;;;;23.45;62.77;98243.19;7309512;19;129139;-37
2022/09/15 04:42:20;;;;;;;;;;;;;;;23.36;62.63;98228.56;7315976;19;128913;-37
2022/09/15 04:44:45;;;;;;;;;;;;;;;23.43;62.38;98233.88;7313013;19;130926;-37
2022/09/15 04:47:11;;;;;;;;;;;;;;;23.42;62.50;98243.53;7313132;19;129379;-38
2022/09/15 04:49:36;;;;;;;;;;;;;;;23.41;62.92;98248.97;7312688;19;129161;-37
2022/09/15 04:52:01;;;;;;;;;;;;;;;23.43;63.02;98255.69;7314523;19;129041;-38
2022/09/15 04:54:27;;;;;;;;;;;;;;;23.45;62.13;98250.25;7315238;19;129117;-37
2022/09/15 04:56:52;;;;;;;;;;;;;;;23.46;62.18;98255.31;7312238;19;130250;-37
2022/09/15 04:59:18;;;;;;;;;;;;;;;23.44;62.96;98241.56;7313053;19;128933;-37
2022/09/15 05:01:43;;;;;;;;;;;;;;;23.44;62.94;98252.06;7314330;19;129802;-37
2022/09/15 05:04:08;;;;;;;;;;;;;;;23.44;62.55;98252.06;7313337;19;130244;-37
2022/09/15 05:06:34;;;;;;;;;;;;;;;23.44;62.95;98252.06;7312712;19;130851;-37
2022/09/15 05:08:59;;;;;;;;;;;;;;;23.43;62.53;98254.84;7314336;19;128828;-38
2022/09/15 05:11:25;;;;;;;;;;;;;;;23.40;62.81;98245.56;7312863;19;129222;-37
2022/09/15 05:13:51;;;;;;;;;;;;;;;23.44;62.60;98259.91;7313872;19;129686;-37
2022/09/15 05:16:17;;;;;;;;;;;;;;;23.44;62.53;98259.09;7312613;19;129245;-37
2022/09/15 05:18:44;;;;;;;;;;;;;;;23.42;62.90;98254.03;7315595;19;129412;-37
2022/09/15 05:21:10;;;;;;;;;;;;;;;23.43;62.84;98258.31;7310806;19;128802;-37
2022/09/15 05:23:36;;;;;;;;;;;;;;;23.43;62.46;98260.94;7311942;19;129126;-37
2022/09/15 05:26:02;;;;;;;;;;;;;;;23.43;62.28;98263.56;7315467;19;130283;-37
2022/09/15 05:28:28;;;;;;;;;;;;;;;23.43;62.25;98265.34;7311270;19;128985;-37
2022/09/15 05:30:54;;;;;;;;;;;;;;;23.43;61.90;98260.94;7314122;19;129085;-37
2022/09/15 05:33:20;;;;;;;;;;;;;;;23.42;62.63;98263.75;7314934;19;129163;-35
2022/09/15 05:35:53;;;;;;;;;;;;;;;23.43;62.44;98266.19;7314763;19;130473;-37
2022/09/15 05:38:18;;;;;;;;;;;;;;;23.42;62.59;98259.28;7315179;19;129247;-36
2022/09/15 05:40:44;;;;;;;;;;;;;;;23.40;62.20;98266.53;7311362;19;129333;-37
2022/09/15 05:43:10;;;;;;;;;;;;;;;23.42;62.11;98269.78;7312852;19;129411;-37
2022/09/15 05:45:35;;;;;;;;;;;;;;;23.42;62.55;98274.22;7314305;19;130254;-37
2022/09/15 05:48:00;;;;;;;;;;;;;;;23.37;62.27;98272.13;7311619;19;129040;-37
2022/09/15 05:50:26;;;;;;;;;;;;;;;23.43;62.25;98279.28;7312334;19;128838;-37
2022/09/15 05:52:51;;;;;;;;;;;;;;;23.37;62.25;98260.84;7313196;19;129581;-37
2022/09/15 05:55:17;;;;;;;;;;;;;;;23.41;62.88;98273.41;7315269;19;130686;-36
2022/09/15 05:57:42;;;;;;;;;;;;;;;23.42;62.56;98271.59;7313432;19;129287;-37
2022/09/15 06:00:07;;;;;;;;;;;;;;;23.41;62.38;98273.41;7311790;19;128830;-37
2022/09/15 06:02:33;;;;;;;;;;;;;;;23.41;62.29;98273.41;7313798;19;129144;-37
2022/09/15 06:04:58;;;;;;;;;;;;;;;23.41;62.64;98273.41;7313583;19;130423;-37
2022/09/15 06:07:23;;;;;;;;;;;;;;;23.40;62.91;98277.03;7312817;19;129013;-37
2022/09/15 06:09:48;;;;;;;;;;;;;;;23.42;62.52;98280.25;7311432;19;129574;-37
2022/09/15 06:12:14;;;;;;;;;;;;;;;23.40;62.70;98277.03;7313622;19;129623;-37
2022/09/15 06:14:41;;;;;;;;;;;;;;;23.41;62.46;98278.66;7313429;19;130313;-37
2022/09/15 06:17:07;;;;;;;;;;;;;;;23.41;62.25;98286.53;7314218;19;129258;-37
2022/09/15 06:19:32;;;;;;;;;;;;;;;23.34;62.13;98267.25;7313058;19;128744;-37
2022/09/15 06:21:57;;;;;;;;;;;;;;;23.42;62.36;98285.50;7311839;19;130128;-37
2022/09/15 06:24:23;;;;;;;;;;;;;;;23.42;62.55;98289.97;7313857;19;130522;-37
2022/09/15 06:26:48;;;;;;;;;;;;;;;23.42;62.40;98290.75;7312416;19;129289;-37
2022/09/15 06:29:13;;;;;;;;;;;;;;;23.42;62.98;98296.00;7311341;19;128969;-37
2022/09/15 06:31:39;;;;;;;;;;;;;;;23.43;62.19;98302.91;7312988;19;130363;-37
2022/09/15 06:34:05;;;;;;;;;;;;;;;23.42;62.07;98295.22;7312753;19;130302;-37
2022/09/15 06:36:31;;;;;;;;;;;;;;;23.42;62.51;98288.13;7312771;19;129799;-37
2022/09/15 06:38:57;;;;;;;;;;;;;;;23.42;62.31;98285.50;7313584;19;129530;-37
2022/09/15 06:41:22;;;;;;;;;;;;;;;23.43;62.02;98289.78;7312792;19;130247;-37
2022/09/15 06:43:48;;;;;;;;;;;;;;;23.43;62.45;98291.59;7309257;19;129989;-37
2022/09/15 06:46:20;;;;;;;;;;;;;;;23.43;62.47;98289.78;7311977;19;129090;-37
2022/09/15 06:48:45;;;;;;;;;;;;;;;23.41;62.13;98283.91;7310214;19;129037;-37
2022/09/15 06:51:11;;;;;;;;;;;;;;;23.46;62.59;98286.78;7311212;19;130854;-37
2022/09/15 06:53:37;;;;;;;;;;;;;;;23.34;62.72;98264.63;7310877;19;129253;-37
2022/09/15 06:56:07;;;;;;;;;;;;;;;23.43;62.52;98281.09;7310320;19;129407;-36
2022/09/15 06:58:33;;;;;;;;;;;;;;;23.42;62.35;98282.88;7311459;19;129094;-35
2022/09/15 07:01:00;;;;;;;;;;;;;;;23.43;62.39;98291.59;7309253;19;129897;-38
2022/09/15 07:03:25;;;;;;;;;;;;;;;23.41;62.51;98278.66;7312055;19;130500;-37
2022/09/15 07:05:51;;;;;;;;;;;;;;;23.43;62.50;98283.72;7320072;19;128984;-37
2022/09/15 07:08:16;;;;;;;;;;;;;;;23.38;62.90;98283.44;7317156;19;128933;-37
2022/09/15 07:10:42;;;;;;;;;;;;;;;23.39;62.40;98291.13;7316943;19;129163;-37
2022/09/15 07:13:08;;;;;;;;;;;;;;;23.43;62.31;98297.66;7318058;19;130510;-37
2022/09/15 07:15:33;;;;;;;;;;;;;;;23.34;62.63;98285.63;7316319;19;130484;-37
2022/09/15 07:17:58;;;;;;;;;;;;;;;23.41;62.76;98297.00;7318007;19;129310;-37
2022/09/15 07:20:24;;;;;;;;;;;;;;;23.40;62.78;98298.03;7316556;19;129438;-37
2022/09/15 07:22:49;;;;;;;;;;;;;;;23.41;62.94;98299.63;7316575;19;131286;-37
2022/09/15 07:25:15;;;;;;;;;;;;;;;23.42;62.25;98306.50;7316961;19;129309;-37
2022/09/15 07:27:40;;;;;;;;;;;;;;;23.40;62.15;98298.03;7315313;19;129031;-37
2022/09/15 07:30:07;;;;;;;;;;;;;;;23.44;62.27;98298.44;7316000;19;129062;-37
2022/09/15 07:32:32;;;;;;;;;;;;;;;23.34;62.96;98276.97;7316467;19;130378;-36
2022/09/15 07:34:58;;;;;;;;;;;;;;;23.43;62.15;98302.91;7319486;19;129363;-38
2022/09/15 07:37:23;;;;;;;;;;;;;;;23.42;62.47;98314.38;7316818;19;129040;-37
2022/09/15 07:39:48;;;;;;;;;;;;;;;23.41;62.28;98315.38;7316584;19;130200;-37
2022/09/15 07:42:13;;;;;;;;;;;;;;;23.41;62.34;98314.56;7314046;19;130590;-37
2022/09/15 07:44:38;;;;;;;;;;;;;;;23.43;62.77;98312.56;7318408;19;129767;-37
2022/09/15 07:47:04;;;;;;;;;;;;;;;23.42;62.55;98319.63;7317083;19;129023;-37
2022/09/15 07:49:29;;;;;;;;;;;;;;;23.44;62.43;98324.66;7314655;19;129497;-37
2022/09/15 07:51:55;;;;;;;;;;;;;;;23.45;62.52;98326.31;7317304;19;129489;-37
2022/09/15 07:54:20;;;;;;;;;;;;;;;23.48;62.41;98326.78;7318003;19;128830;-37
2022/09/15 07:56:45;;;;;;;;;;;;;;;23.48;62.14;98326.78;7315725;19;129047;-37
2022/09/15 07:59:11;;;;;;;;;;;;;;;23.49;61.49;98324.94;7317440;19;130120;-37
2022/09/15 08:01:36;;;;;;;;;;;;;;;23.44;61.78;98330.75;7316223;19;130327;-37
2022/09/15 08:04:02;;;;;;;;;;;;;;;23.47;61.84;98325.13;7317753;19;129410;-37
2022/09/15 08:06:27;;;;;;;;;;;;;;;23.40;61.40;98328.66;7318047;19;128854;-37
2022/09/15 08:08:52;;;;;;;;;;;;;;;23.27;61.75;98318.00;7313238;19;130087;-37
2022/09/15 08:11:19;;;;;;;;;;;;;;;23.39;61.56;98335.72;7317126;19;130147;-37
2022/09/15 08:13:48;;;;;;;;;;;;;;;23.37;62.07;98335.06;7316791;19;129284;-37
2022/09/15 08:16:15;;;;;;;;;;;;;;;23.38;61.16;98336.72;7315584;19;129105;-38
2022/09/15 08:18:42;;;;;;;;;;;;;;;23.39;61.01;98333.09;7316822;19;129078;-38
2022/09/15 08:21:08;;;;;;;;;;;;;;;23.43;61.64;98344.03;7313961;19;131235;-38
2022/09/15 08:23:34;;;;;;;;;;;;;;;23.33;61.29;98333.84;7315950;19;129249;-37
2022/09/15 08:25:59;;;;;;;;;;;;;;;23.37;61.54;98337.69;7315287;19;130226;-37
2022/09/15 08:28:25;;;;;;;;;;;;;;;23.33;60.58;98351.38;7314561;19;129455;-37
2022/09/15 08:30:56;;;;;;;;;;;;;;;23.35;61.64;98341.50;7313943;19;129891;-37
2022/09/15 08:33:22;;;;;;;;;;;;;;;23.35;61.12;98342.34;7315801;19;128899;-37
2022/09/15 08:35:47;;;;;;;;;;;;;;;23.39;61.31;98335.72;7317111;19;129026;-37
2022/09/15 08:38:12;;;;;;;;;;;;;;;23.39;60.76;98332.31;7314996;19;129257;-37
2022/09/15 08:40:42;;;;;;;;;;;;;;;23.37;61.05;98344.78;7314355;19;129847;-37
2022/09/15 08:43:14;;;;;;;;;;;;;;;23.37;60.85;98340.31;7313037;19;129458;-37
2022/09/15 08:45:54;;;;;;;;;;;;;;;23.36;60.88;98343.97;7315425;19;129075;-38
2022/09/15 08:48:23;;;;;;;;;;;;;;;23.36;60.96;98349.19;7313485;19;129563;-36
2022/09/15 08:50:51;;;;;;;;;;;;;;;23.36;61.18;98345.75;7312743;19;130551;-37
2022/09/15 08:53:24;;;;;;;;;;;;;;;23.38;60.93;98352.47;7315651;19;129200;-37
2022/09/15 08:55:54;;;;;;;;;;;;;;;23.40;60.27;98354.91;7313742;19;129261;-37
2022/09/15 08:58:20;;;;;;;;;;;;;;;23.18;60.67;98332.97;7316056;19;130114;-37
2022/09/15 09:00:50;;;;;;;;;;;;;;;23.20;59.90;98334.41;7311698;19;132696;-38
2022/09/15 09:03:15;;;;;;;;;;;;;;;23.21;60.81;98336.06;7315260;19;128918;-37
2022/09/15 09:05:48;;;;;;;;;;;;;;;23.28;60.61;98351.91;7314815;19;130377;-37
2022/09/15 09:08:25;;;;;;;;;;;;;;;23.27;61.15;98354.72;7313138;19;130117;-38
2022/09/15 09:10:52;;;;;;;;;;;;;;;23.15;60.02;98347.25;7313503;19;129196;-37
2022/09/15 09:13:36;;;;;;;;;;;;;;;23.28;60.18;98351.09;7314949;19;129623;-38
2022/09/15 09:16:05;;;;;;;;;;;;;;;23.21;60.49;98361.47;7314510;19;129622;-37
2022/09/15 09:18:30;;;;;;;;;;;;;;;23.21;60.22;98362.28;7314042;19;129202;-37
2022/09/15 09:20:56;;;;;;;;;;;;;;;23.26;59.94;98359.09;7311215;19;131941;-37
2022/09/15 09:23:25;;;;;;;;;;;;;;;23.23;60.55;98355.06;7314559;19;129537;-37
2022/09/15 09:25:51;;;;;;;;;;;;;;;23.23;60.41;98355.06;7312506;19;129539;-37
2022/09/15 09:28:36;;;;;;;;;;;;;;;23.20;61.13;98346.72;7312216;19;130217;-37
2022/09/15 09:31:06;;;;;;;;;;;;;;;23.30;60.58;98349.94;7310771;19;131976;-37
2022/09/15 09:33:42;;;;;;;;;;;;;;;23.23;60.78;98351.59;7314399;19;129352;-37
2022/09/15 09:36:08;;;;;;;;;;;;;;;23.24;60.73;98356.66;7313453;19;129623;-37
2022/09/15 09:38:38;;;;;;;;;;;;;;;23.30;61.16;98354.34;7314212;19;129526;-38
2022/09/15 09:41:05;;;;;;;;;;;;;;;23.28;60.42;98351.91;7311161;19;129431;-36
2022/09/15 09:43:31;;;;;;;;;;;;;;;23.25;60.77;98347.78;7314263;19;129651;-38
2022/09/15 09:45:56;;;;;;;;;;;;;;;23.23;60.62;98343.75;7311962;19;129483;-37
2022/09/15 09:48:23;;;;;;;;;;;;;;;23.24;60.67;98346.19;7312706;19;131158;-37
2022/09/15 09:50:49;;;;;;;;;;;;;;;23.24;60.84;98345.34;7311483;19;130338;-37
2022/09/15 09:53:20;;;;;;;;;;;;;;;23.17;60.41;98333.97;7314687;19;129084;-37
2022/09/15 09:55:45;;;;;;;;;;;;;;;23.27;61.31;98346.84;7313420;19;128936;-37
2022/09/15 09:58:13;;;;;;;;;;;;;;;23.16;60.65;98327.09;7314220;19;129667;-37
2022/09/15 10:00:39;;;;;;;;;;;;;;;23.25;60.81;98344.38;7312391;19;130285;-38
2022/09/15 10:03:08;;;;;;;;;;;;;;;23.25;61.20;98341.75;7313334;19;128875;-37
2022/09/15 10:05:34;;;;;;;;;;;;;;;23.25;60.32;98341.75;7313597;19;128896;-37
2022/09/15 10:08:01;;;;;;;;;;;;;;;23.21;60.43;98335.22;7311499;19;130897;-37
2022/09/15 10:10:31;;;;;;;;;;;;;;;23.21;61.38;98345.72;7311761;19;130379;-37
2022/09/15 10:12:56;;;;;;;;;;;;;;;23.19;61.47;98340.66;7313859;19;129891;-37
2022/09/15 10:15:23;;;;;;;;;;;;;;;23.20;60.75;98344.09;7314283;19;128950;-37
2022/09/15 10:17:50;;;;;;;;;;;;;;;23.24;60.80;98350.59;7314105;19;129464;-37
2022/09/15 10:20:24;;;;;;;;;;;;;;;23.14;60.62;98335.16;7311386;19;129165;-37
2022/09/15 10:22:50;;;;;;;;;;;;;;;23.20;60.59;98344.09;7312470;19;129314;-37
2022/09/15 10:25:18;;;;;;;;;;;;;;;23.20;61.24;98344.91;7313245;19;130609;-36
2022/09/15 10:27:44;;;;;;;;;;;;;;;23.18;61.17;98346.09;7311669;19;129858;-37
2022/09/15 10:30:12;;;;;;;;;;;;;;;23.18;61.01;98340.84;7312073;19;130326;-36
2022/09/15 10:32:38;;;;;;;;;;;;;;;23.20;60.82;98338.88;7312836;19;129079;-35
2022/09/15 10:35:10;;;;;;;;;;;;;;;23.20;60.70;98344.09;7312169;19;129246;-37
2022/09/15 10:37:44;;;;;;;;;;;;;;;23.21;60.54;98348.34;7313421;19;130141;-37
2022/09/15 10:40:28;;;;;;;;;;;;;;;23.17;60.96;98349.72;7317803;19;129606;-37
2022/09/15 10:43:00;;;;;;;;;;;;;;;23.19;60.33;98348.53;7321137;19;128956;-37
2022/09/15 10:45:31;;;;;;;;;;;;;;;23.16;60.22;98346.28;7319198;19;129957;-37
2022/09/15 10:48:01;;;;;;;;;;;;;;;23.15;60.05;98349.06;7317724;19;129594;-37
2022/09/15 10:50:33;;;;;;;;;;;;;;;23.09;60.12;98326.19;7317488;19;129119;-37
2022/09/15 10:53:04;;;;;;;;;;;;;;;23.20;60.00;98350.16;7319365;19;129270;-37
2022/09/15 10:55:39;;;;;;;;;;;;;;;23.16;59.64;98342.81;7319335;19;130602;-37
2022/09/15 10:58:13;;;;;;;;;;;;;;;23.14;60.64;98340.38;7317609;19;131913;-37
2022/09/15 11:00:54;;;;;;;;;;;;;;;23.15;60.39;98346.47;7317249;19;130362;-37
2022/09/15 11:03:26;;;;;;;;;;;;;;;23.14;60.25;98345.63;7317389;19;129037;-37
2022/09/15 11:06:20;;;;;;;;;;;;;;;23.16;60.47;98342.81;7318241;19;129058;-38
2022/09/15 11:08:48;;;;;;;;;;;;;;;23.14;60.24;98344.81;7315472;19;129637;-37
2022/09/15 11:11:34;;;;;;;;;;;;;;;23.14;59.96;98342.19;7315797;19;131568;-37
2022/09/15 11:14:15;;;;;;;;;;;;;;;23.16;59.91;98342.81;7316339;19;131528;-37
2022/09/15 11:16:52;;;;;;;;;;;;;;;23.14;59.35;98340.38;7319106;19;128901;-37
2022/09/15 11:19:28;;;;;;;;;;;;;;;23.11;59.83;98330.25;7315170;19;129466;-37
2022/09/15 11:21:56;;;;;;;;;;;;;;;23.00;60.17;98317.59;7315106;19;130005;-37
2022/09/15 11:24:30;;;;;;;;;;;;;;;23.14;60.33;98336.94;7318082;19;129006;-36
2022/09/15 11:26:59;;;;;;;;;;;;;;;23.16;59.84;98338.41;7317607;19;129850;-36
2022/09/15 11:29:28;;;;;;;;;;;;;;;23.11;60.15;98329.44;7316274;19;130335;-37
2022/09/15 11:31:59;;;;;;;;;;;;;;;23.13;60.14;98330.09;7316137;19;129494;-37
2022/09/15 11:34:28;;;;;;;;;;;;;;;23.17;59.79;98328.75;7318636;19;129000;-37
2022/09/15 11:37:07;;;;;;;;;;;;;;;23.18;60.09;98330.34;7318597;19;128936;-37
2022/09/15 11:39:40;;;;;;;;;;;;;;;23.15;59.71;98325.47;7316858;19;130134;-37
2022/09/15 11:42:23;;;;;;;;;;;;;;;23.16;60.16;98321.84;7313278;19;130252;-37
2022/09/15 11:44:49;;;;;;;;;;;;;;;22.93;59.83;98321.94;7315439;19;128873;-37
2022/09/15 11:47:20;;;;;;;;;;;;;;;22.82;60.33;98313.69;7315892;19;129707;-37
2022/09/15 11:49:52;;;;;;;;;;;;;;;22.82;59.61;98326.78;7314497;19;129963;-37
2022/09/15 11:52:30;;;;;;;;;;;;;;;22.77;59.10;98329.13;7316231;19;130854;-37
2022/09/15 11:54:59;;;;;;;;;;;;;;;22.72;59.01;98327.06;7317625;19;129129;-37
2022/09/15 11:57:29;;;;;;;;;;;;;;;23.13;59.68;98327.47;7316139;19;129405;-37
2022/09/15 12:00:11;;;;;;;;;;;;;;;23.25;59.02;98331.28;7316825;19;129545;-35
2022/09/15 12:02:55;;;;;;;;;;;;;;;23.21;59.50;98309.84;7315287;19;130986;-37
2022/09/15 12:05:22;;;;;;;;;;;;;;;23.34;59.65;98327.56;7316624;19;129708;-37
2022/09/15 12:07:57;;;;;;;;;;;;;;;23.32;58.60;98329.56;7317058;19;129095;-37
2022/09/15 12:10:32;;;;;;;;;;;;;;;23.32;59.23;98326.94;7315256;19;129608;-37
2022/09/15 12:12:59;;;;;;;;;;;;;;;23.21;58.24;98309.84;7316543;19;130437;-37
2022/09/15 12:15:27;;;;;;;;;;;;;;;23.24;58.31;98324.38;7316166;19;129981;-37
2022/09/15 12:18:09;;;;;;;;;;;;;;;23.25;58.48;98312.91;7316266;19;128956;-37
2022/09/15 12:20:39;;;;;;;;;;;;;;;23.23;58.46;98320.13;7314835;19;129411;-37
2022/09/15 12:23:17;;;;;;;;;;;;;;;23.21;58.64;98322.94;7315523;19;130289;-38
2022/09/15 12:25:58;;;;;;;;;;;;;;;23.19;58.44;98319.69;7316745;19;129647;-37
2022/09/15 12:28:25;;;;;;;;;;;;;;;23.19;58.70;98313.63;7316498;19;128987;-37
2022/09/15 12:31:09;;;;;;;;;;;;;;;23.20;58.61;98313.44;7314908;19;130887;-37
2022/09/15 12:33:40;;;;;;;;;;;;;;;23.18;59.01;98319.88;7314738;19;130337;-37
2022/09/15 12:36:24;;;;;;;;;;;;;;;23.14;58.85;98316.78;7316825;19;128954;-37
2022/09/15 12:38:49;;;;;;;;;;;;;;;23.12;59.09;98315.34;7315781;19;129178;-37
2022/09/15 12:41:17;;;;;;;;;;;;;;;23.10;58.61;98325.19;7313339;19;129000;-36